Terminal Aerodrome Forecast
Issued by NWS Pendleton, OR

Home | Current Version | Previous Version | Text Only | Print | Product List | Glossary On
Versions: 1 2 3 4 5 6 7 8 9 10 11 12 13 14 15 16 17 18 19 20 21 22 23 24 25 26
000
FTUS46 KPDT 192341
TAFPDT
TAF
KPDT 192341Z 2000/2024 VRB04KT P6SM VCSH BKN070 BKN090
     FM200200 12004KT P6SM SCT070 BKN090
     FM200800 15006KT P6SM -RA BKN035 OVC050
     FM201800 25012G20KT P6SM SCT050 BKN100=

USA.gov is the U.S. government's official web portal to all federal, state and local government web resources and services.